Huvudsida
METAR-TAF:

METAR-TAF

Flygplatser :

Jeddah, Saudiarabien

latitud: 21-42N, longitud: 039-11E, höjd: 15 m

Aktuellt väderrapport

Denna rapport gjordes för 7 minuter sedan, klockan 14:00 UTC
Vind 12 kt från väst/nordväst
Temperatur 35°C
Fuktighet 47%
Tryck 1003 hPa
Sikt 10 km eller mer
Inga moln under 1 500 m eller inga cumulonimbus

METAR: OEJN 241400Z 29012KT CAVOK 35/22 Q1003 NOSIG

Tid: 17:07 (14:07 UTC)

Väderprognos

Denna rapport gjordes för 3 timmar och 7 minuter sedan, klockan 11:00 UTC
Prognos gäller från 24 kl. 12 UTC till 25 kl. 18 UTC
Vind 14 kt från väst/nordväst
Sikt 10 km eller mer
Få moln på en höjd av 4000 ft
Blir
från 24 kl. 18 UTC till 24 kl. 20 UTC
Vind 8 kt från nord

TAF: OEJN 241100Z 2412/2518 30014KT 9999 FEW040 BECMG 2418/2420 36008KT

Aktuella väderrapporter och prognoser från 4000 flygplatser (METAR- och TAF-rapporter).

De tillgängliga stationerna syns som gula och röda prickar på kartan.

För musen över prickarna för att se namnen på stationerna.

Klicka sedan för att få väderrapporter och prognoser.

För att ändra kartan: Klicka på de gröna knapparna med ett svart kors på för att zooma in; den gröna knappen med ett streck på för att zooma ut; eller på de gröna pilarna för angränsande kartor.


METAR-TAF: